Time;durP1;ratioP1;P1;durP2;ratioP2;P2;SDS_P1;SDS_P2;PMS_P1;PMS_P2;Temp;Humidity;BMP_temperature;BMP_pressure;BME280_temperature;BME280_humidity;BME280_pressure;Samples;Min_cycle;Max_cycle;Signal;HPM_P1;HPM_P2
2023/06/30 00:01:50;;;;;;;18.05;4.53;;;;;;;-142.57;68.41;115900.28;5010996;28;20031;-77
2023/06/30 00:04:17;;;;;;;17.35;3.85;;;;;;;-142.57;68.50;115900.28;5011409;28;20042;-80
2023/06/30 00:06:50;;;;;;;11.20;4.10;;;;;;;-142.57;68.35;115900.28;5009454;28;20117;-79
2023/06/30 00:09:19;;;;;;;10.70;4.25;;;;;;;-142.57;68.41;115900.28;5006831;28;20121;-78
2023/06/30 00:11:49;;;;;;;15.13;4.40;;;;;;;-142.57;67.67;115900.28;5004427;28;20022;-79
2023/06/30 00:14:14;;;;;;;9.25;3.70;;;;;;;-142.57;67.14;115900.28;4998375;28;20464;-82
2023/06/30 00:16:40;;;;;;;7.88;4.13;;;;;;;-142.57;67.31;115900.28;4996838;28;20041;-80
2023/06/30 00:19:05;;;;;;;11.13;3.60;;;;;;;-142.57;66.58;115900.28;4978664;28;20064;-80
2023/06/30 00:21:31;;;;;;;12.43;4.10;;;;;;;-142.57;66.68;115900.28;4995818;28;20372;-79
2023/06/30 00:24:01;;;;;;;17.92;4.97;;;;;;;-142.57;66.42;115900.28;4996913;28;20428;-78
2023/06/30 00:26:30;;;;;;;13.85;4.82;;;;;;;-142.57;66.25;115900.28;4997471;28;20037;-76
2023/06/30 00:28:57;;;;;;;13.82;4.90;;;;;;;-142.57;67.48;115900.28;4997092;28;20023;-79
2023/06/30 00:31:23;;;;;;;14.50;4.50;;;;;;;-142.57;67.83;115900.28;4999105;28;20034;-79
2023/06/30 00:33:48;;;;;;;13.93;4.95;;;;;;;-142.57;67.33;115900.28;5006426;28;20041;-80
2023/06/30 00:36:15;;;;;;;10.73;4.38;;;;;;;-142.57;67.37;115900.28;5000781;28;20047;-78
2023/06/30 00:38:40;;;;;;;14.93;4.03;;;;;;;-142.57;67.96;115900.28;5013564;28;20022;-77
2023/06/30 00:41:07;;;;;;;13.07;4.95;;;;;;;-142.57;68.14;115900.28;4972983;28;20043;-79
2023/06/30 00:43:33;;;;;;;14.73;4.43;;;;;;;-142.57;68.56;115900.28;4988975;28;20058;-79
2023/06/30 00:45:58;;;;;;;7.20;3.88;;;;;;;-142.57;67.75;115900.28;5009295;28;20034;-80
2023/06/30 00:48:26;;;;;;;12.60;4.60;;;;;;;-142.57;68.31;115900.28;5003917;28;20057;-80
2023/06/30 00:50:51;;;;;;;13.02;4.88;;;;;;;-142.57;69.20;115900.28;4990639;28;20045;-80
2023/06/30 00:53:17;;;;;;;13.77;4.65;;;;;;;-142.57;69.14;115900.28;5001600;28;20395;-81
2023/06/30 00:55:44;;;;;;;13.32;4.45;;;;;;;-142.57;69.24;115900.28;4995507;28;20039;-81
2023/06/30 00:58:10;;;;;;;9.40;4.93;;;;;;;-142.57;69.10;115900.28;4977619;28;20026;-83
2023/06/30 01:00:35;;;;;;;9.18;4.25;;;;;;;-142.57;68.51;115900.28;4977565;28;20031;-80
2023/06/30 01:03:33;;;;;;;9.05;4.30;;;;;;;-142.57;67.77;115900.28;4994798;28;20452;-79
2023/06/30 01:06:09;;;;;;;11.90;4.18;;;;;;;-142.57;68.33;115900.28;4977208;28;20038;-80
2023/06/30 01:08:35;;;;;;;12.48;4.25;;;;;;;-142.57;68.25;115900.28;4994666;28;20045;-80
2023/06/30 01:11:02;;;;;;;12.23;4.28;;;;;;;-142.57;67.87;115900.28;4961497;28;20096;-82
2023/06/30 01:13:29;;;;;;;11.02;4.20;;;;;;;-142.57;68.18;115900.28;4994630;28;20038;-82
2023/06/30 01:15:57;;;;;;;15.25;4.28;;;;;;;-142.57;68.85;115900.28;4994648;28;20034;-81
2023/06/30 01:18:24;;;;;;;8.15;3.85;;;;;;;-142.57;68.16;115900.28;4994198;28;20038;-81
2023/06/30 01:20:50;;;;;;;8.52;3.53;;;;;;;-142.57;68.10;115900.28;4994837;28;20030;-83
2023/06/30 01:23:37;;;;;;;8.98;4.22;;;;;;;-142.57;69.71;115900.28;4976946;28;20483;-80
2023/06/30 01:26:05;;;;;;;11.32;3.95;;;;;;;-142.57;71.03;115900.28;4993913;28;20395;-81
2023/06/30 01:28:35;;;;;;;11.63;4.05;;;;;;;-142.57;70.35;115900.28;4976979;28;20034;-79
2023/06/30 01:31:05;;;;;;;8.88;4.28;;;;;;;-142.57;70.02;115900.28;4976661;28;20069;-79
2023/06/30 01:33:34;;;;;;;10.73;4.15;;;;;;;-142.57;69.99;115900.28;4994141;28;20373;-78
2023/06/30 01:36:00;;;;;;;9.48;4.45;;;;;;;-142.57;69.33;115900.28;4994377;28;20049;-79
2023/06/30 01:38:27;;;;;;;11.13;4.40;;;;;;;-142.57;68.38;115900.28;4994074;28;20097;-77
2023/06/30 01:40:53;;;;;;;18.67;5.03;;;;;;;-142.57;68.64;115900.28;4976649;28;20034;-78
2023/06/30 01:43:20;;;;;;;9.63;4.57;;;;;;;-142.57;69.07;115900.28;4994172;28;20457;-78
2023/06/30 01:45:46;;;;;;;7.13;3.63;;;;;;;-142.57;68.74;115900.28;4979074;28;20030;-84
2023/06/30 01:48:14;;;;;;;11.82;4.18;;;;;;;-142.57;67.83;115900.28;5007838;28;20050;-83
2023/06/30 01:50:40;;;;;;;7.32;4.15;;;;;;;-142.57;67.57;115900.28;4988398;28;20038;-86
2023/06/30 01:53:06;;;;;;;11.02;4.78;;;;;;;-142.57;67.06;115900.28;5003399;28;20113;-84
2023/06/30 01:55:32;;;;;;;12.07;4.40;;;;;;;-142.57;67.18;115900.28;5001801;28;20499;-84
2023/06/30 01:58:00;;;;;;;12.88;4.45;;;;;;;-142.57;67.52;115900.28;5001431;28;20038;-84
2023/06/30 02:00:26;;;;;;;12.75;4.65;;;;;;;-142.57;67.69;115900.28;4982097;28;20030;-85
2023/06/30 02:02:52;;;;;;;8.85;4.65;;;;;;;-142.57;67.71;115900.28;4985106;28;20104;-85
2023/06/30 02:05:18;;;;;;;9.98;5.10;;;;;;;-142.57;69.03;115900.28;4968765;28;20085;-85
2023/06/30 02:07:43;;;;;;;10.15;4.57;;;;;;;-142.57;71.11;115900.28;4983622;28;20110;-85
2023/06/30 02:10:12;;;;;;;7.97;4.53;;;;;;;-142.57;72.97;115900.28;5002408;28;20030;-84
2023/06/30 02:12:39;;;;;;;15.90;4.50;;;;;;;-142.57;72.91;115900.28;4984489;28;20039;-84
2023/06/30 02:15:06;;;;;;;15.23;4.20;;;;;;;-142.57;74.29;115900.28;4984691;28;20038;-86
2023/06/30 02:17:35;;;;;;;12.02;4.63;;;;;;;-142.57;75.72;115900.28;5001043;28;20023;-83
2023/06/30 02:20:03;;;;;;;7.72;4.07;;;;;;;-142.57;76.22;115900.28;5002436;28;20057;-85
2023/06/30 02:22:33;;;;;;;8.02;4.60;;;;;;;-142.57;77.22;115900.28;4971139;28;20515;-85
2023/06/30 02:24:59;;;;;;;9.73;4.97;;;;;;;-142.57;78.61;115900.28;4970487;28;20130;-86
2023/06/30 02:27:26;;;;;;;7.68;4.50;;;;;;;-142.57;78.67;115900.28;4987711;28;20050;-85
2023/06/30 02:29:54;;;;;;;12.52;4.97;;;;;;;-142.57;78.94;115900.28;4971869;28;20026;-85
2023/06/30 02:32:20;;;;;;;10.18;4.38;;;;;;;-142.57;79.06;115900.28;4987905;28;20041;-87
2023/06/30 02:34:46;;;;;;;8.07;4.30;;;;;;;-142.57;79.19;115900.28;4988155;28;20053;-86
2023/06/30 02:37:12;;;;;;;11.63;4.07;;;;;;;-142.57;79.42;115900.28;5006716;28;20038;-84
2023/06/30 02:39:37;;;;;;;8.55;4.55;;;;;;;-142.57;82.27;115900.28;4987478;28;20045;-86
2023/06/30 02:42:03;;;;;;;9.30;4.43;;;;;;;-142.57;82.56;115900.28;4987720;28;20022;-87
2023/06/30 02:44:29;;;;;;;10.80;4.15;;;;;;;-142.57;83.48;115900.28;5004484;28;20038;-88
2023/06/30 02:46:55;;;;;;;11.13;4.65;;;;;;;-142.57;83.68;115900.28;5003784;28;20508;-86
2023/06/30 02:49:22;;;;;;;7.80;3.63;;;;;;;-142.57;82.82;115900.28;4984976;28;20042;-85
2023/06/30 02:51:48;;;;;;;11.75;4.35;;;;;;;-142.57;83.77;115900.28;5002540;28;20042;-83
2023/06/30 02:54:14;;;;;;;6.28;4.07;;;;;;;-142.57;84.01;115900.28;5002292;28;20376;-84
2023/06/30 02:56:41;;;;;;;7.82;4.00;;;;;;;-142.57;84.24;115900.28;4986050;28;20130;-84
2023/06/30 02:59:07;;;;;;;11.43;4.40;;;;;;;-142.57;82.95;115900.28;4985041;28;20031;-85
2023/06/30 03:01:34;;;;;;;13.68;4.20;;;;;;;-142.57;83.01;115900.28;4986251;28;20041;-83
2023/06/30 03:04:00;;;;;;;11.18;4.57;;;;;;;-142.57;82.15;115900.28;4975761;28;20098;-84
2023/06/30 03:06:32;;;;;;;10.23;4.13;;;;;;;-142.57;82.51;115900.28;5013683;28;20053;-84
2023/06/30 03:08:58;;;;;;;9.75;3.97;;;;;;;-142.57;82.17;115900.28;5085703;22;20051;-85
2023/06/30 03:11:27;;;;;;;10.18;4.18;;;;;;;-142.57;81.63;115900.28;5042665;28;20100;-87
2023/06/30 03:13:53;;;;;;;9.90;4.18;;;;;;;-142.57;80.28;115900.28;5019078;28;20136;-84
2023/06/30 03:16:20;;;;;;;7.43;3.88;;;;;;;-142.57;79.74;115900.28;5029777;28;20021;-86
2023/06/30 03:18:46;;;;;;;12.77;4.72;;;;;;;-142.57;79.21;115900.28;5030277;28;20037;-88
2023/06/30 03:21:11;;;;;;;7.72;4.32;;;;;;;-142.57;78.93;115900.28;5014277;28;20052;-86
2023/06/30 03:23:41;;;;;;;15.90;4.93;;;;;;;-142.57;79.52;115900.28;5031948;28;20037;-87
2023/06/30 03:26:07;;;;;;;10.38;4.20;;;;;;;-142.57;79.97;115900.28;5031931;28;20088;-87
2023/06/30 03:28:33;;;;;;;9.68;4.88;;;;;;;-142.57;79.05;115900.28;5031012;28;20514;-87
2023/06/30 03:30:59;;;;;;;15.38;4.80;;;;;;;-142.57;78.61;115900.28;5032597;28;20053;-88
2023/06/30 03:33:28;;;;;;;9.30;4.40;;;;;;;-142.57;79.83;115900.28;5036406;28;20118;-85
2023/06/30 03:35:53;;;;;;;12.63;4.30;;;;;;;-142.57;80.56;115900.28;5032490;28;20041;-86
2023/06/30 03:38:19;;;;;;;14.38;4.10;;;;;;;-142.57;80.73;115900.28;5047198;28;20105;-87
2023/06/30 03:40:44;;;;;;;9.70;4.40;;;;;;;-142.57;81.33;115900.28;5029461;28;20013;-89
2023/06/30 03:43:10;;;;;;;10.65;4.10;;;;;;;-142.57;81.49;115900.28;5012097;28;20038;-86
2023/06/30 03:45:38;;;;;;;9.27;4.45;;;;;;;-142.57;81.96;115900.28;5030273;28;20045;-86
2023/06/30 03:48:03;;;;;;;16.92;4.32;;;;;;;-142.57;81.10;115900.28;5029587;28;20045;-86
2023/06/30 03:50:32;;;;;;;8.98;4.07;;;;;;;-142.57;81.09;115900.28;5013599;28;20040;-85
2023/06/30 03:52:58;;;;;;;9.05;4.45;;;;;;;-142.57;80.35;115900.28;5030044;28;20036;-86
2023/06/30 03:55:23;;;;;;;6.97;3.78;;;;;;;-142.57;80.47;115900.28;5047911;28;20038;-86
2023/06/30 03:57:49;;;;;;;11.07;4.45;;;;;;;-142.57;82.08;115900.28;5048302;28;20164;-85
2023/06/30 04:00:15;;;;;;;6.90;4.18;;;;;;;-142.57;81.74;115900.28;5030444;28;20025;-87
2023/06/30 04:02:44;;;;;;;11.95;4.40;;;;;;;-142.57;82.13;115900.28;5030429;28;20374;-87
2023/06/30 04:05:12;;;;;;;9.13;4.32;;;;;;;-142.57;82.17;115900.28;5049902;28;20025;-87
2023/06/30 04:07:53;;;;;;;;;;;;;;;;;;;;;
2023/06/30 04:10:30;;;;;;;16.38;4.90;;;;;;;-142.57;81.61;115900.28;5059812;28;20025;-86
2023/06/30 04:12:55;;;;;;;12.02;4.20;;;;;;;-142.57;82.54;115900.28;5060175;28;20032;-87
2023/06/30 04:15:21;;;;;;;11.00;4.28;;;;;;;-142.57;81.90;115900.28;5059558;28;20013;-86
2023/06/30 04:21:09;;;;;;;12.60;4.43;;;;;;;-142.57;81.83;115900.28;5034990;28;20493;-86
2023/06/30 04:23:36;;;;;;;9.75;4.10;;;;;;;-142.57;82.35;115900.28;5035241;28;20056;-86
2023/06/30 04:26:04;;;;;;;18.75;4.75;;;;;;;-142.57;82.04;115900.28;5039398;28;20093;-90
2023/06/30 04:28:56;;;;;;;13.43;5.03;;;;;;;-142.57;81.36;115900.28;5032933;28;20072;-90
2023/06/30 04:31:23;;;;;;;11.02;4.72;;;;;;;-142.57;81.24;115900.28;5043401;28;20034;-89
2023/06/30 04:33:50;;;;;;;13.43;4.10;;;;;;;-142.57;80.91;115900.28;5059173;28;20018;-90
2023/06/30 04:36:17;;;;;;;22.15;4.95;;;;;;;-142.57;80.94;115900.28;5040113;28;20036;-89
2023/06/30 04:38:46;;;;;;;26.05;6.68;;;;;;;-142.57;82.17;115900.28;5041719;28;20041;-89
2023/06/30 04:41:19;;;;;;;19.80;6.47;;;;;;;-142.57;81.64;115900.28;5037760;28;20033;-89
2023/06/30 04:43:46;;;;;;;29.48;6.93;;;;;;;-142.57;82.31;115900.28;5025719;28;20048;-89
2023/06/30 04:46:12;;;;;;;26.02;6.95;;;;;;;-142.57;82.59;115900.28;5042312;28;20022;-89
2023/06/30 04:48:48;;;;;;;17.15;7.25;;;;;;;-142.57;82.22;115900.28;5026420;28;20017;-89
2023/06/30 04:51:26;;;;;;;20.00;7.00;;;;;;;-142.57;82.05;115900.28;5083659;22;20064;-89
2023/06/30 04:53:53;;;;;;;20.98;8.18;;;;;;;-142.57;80.20;115900.28;5023245;28;20050;-89
2023/06/30 04:56:20;;;;;;;17.85;7.57;;;;;;;-142.57;79.96;115900.28;5022707;28;20026;-88
2023/06/30 04:58:50;;;;;;;14.70;6.60;;;;;;;-142.57;78.53;115900.28;5039366;28;20105;-91
2023/06/30 05:01:16;;;;;;;17.98;7.07;;;;;;;-142.57;77.66;115900.28;5039166;28;20034;-88
2023/06/30 05:03:42;;;;;;;22.90;8.52;;;;;;;-142.57;77.49;115900.28;5020201;28;20090;-89
2023/06/30 05:06:07;;;;;;;18.45;8.63;;;;;;;-142.57;77.85;115900.28;5037751;28;20022;-88
2023/06/30 05:08:33;;;;;;;18.60;8.75;;;;;;;-142.57;78.37;115900.28;5021845;28;20054;-91
2023/06/30 05:11:02;;;;;;;16.58;10.13;;;;;;;-142.57;78.30;115900.28;5021715;28;20046;-92
2023/06/30 05:13:28;;;;;;;23.98;10.48;;;;;;;-142.57;77.95;115900.28;5022550;28;20052;-89
2023/06/30 05:15:57;;;;;;;17.65;10.50;;;;;;;-142.57;78.19;115900.28;5014708;28;20014;-89
2023/06/30 05:18:28;;;;;;;24.85;11.18;;;;;;;-142.57;78.86;115900.28;5014916;28;20042;-89
2023/06/30 05:20:55;;;;;;;17.77;8.93;;;;;;;-142.57;78.78;115900.28;5037696;23;20046;-87
2023/06/30 05:23:20;;;;;;;24.67;11.82;;;;;;;-142.57;78.47;115900.28;5033577;28;20033;-84
2023/06/30 05:25:46;;;;;;;22.65;12.05;;;;;;;-142.57;77.96;115900.28;5018856;28;20050;-82
2023/06/30 05:28:11;;;;;;;21.70;11.63;;;;;;;-142.57;77.52;115900.28;5017549;28;20046;-84
2023/06/30 05:30:39;;;;;;;21.10;11.07;;;;;;;-142.57;76.60;115900.28;5000580;28;20038;-82
2023/06/30 05:33:04;;;;;;;23.52;11.15;;;;;;;-142.57;76.03;115900.28;5087686;23;20057;-85
2023/06/30 05:35:30;;;;;;;18.45;10.43;;;;;;;-142.57;74.18;115900.28;5022421;28;20121;-83
2023/06/30 05:37:56;;;;;;;17.00;10.82;;;;;;;-142.57;74.55;115900.28;5005391;28;20041;-81
2023/06/30 05:40:24;;;;;;;23.77;11.73;;;;;;;-142.57;72.19;115900.28;5020120;28;20014;-82
2023/06/30 05:42:59;;;;;;;23.17;11.60;;;;;;;-142.57;72.37;115900.28;5012085;28;20080;-86
2023/06/30 05:45:25;;;;;;;19.50;10.25;;;;;;;-142.57;71.82;115900.28;5005207;28;20037;-81
2023/06/30 05:47:51;;;;;;;22.70;11.48;;;;;;;-142.57;71.71;115900.28;4998446;28;20034;-84
2023/06/30 05:50:22;;;;;;;20.52;12.27;;;;;;;-142.57;71.47;115900.28;5020200;28;20034;-80
2023/06/30 05:52:49;;;;;;;18.60;11.68;;;;;;;-142.57;71.06;115900.28;5019084;28;20048;-84
2023/06/30 05:55:15;;;;;;;21.33;10.88;;;;;;;-142.57;71.05;115900.28;4988424;28;20022;-85
2023/06/30 05:57:44;;;;;;;19.17;10.68;;;;;;;-142.57;69.14;115900.28;5018729;28;20068;-83
2023/06/30 06:00:10;;;;;;;14.43;10.10;;;;;;;-142.57;67.99;115900.28;5015836;28;20049;-83
2023/06/30 06:02:40;;;;;;;19.98;10.38;;;;;;;-142.57;68.18;115900.28;5012173;28;20153;-84
2023/06/30 06:05:05;;;;;;;20.70;11.25;;;;;;;-142.57;66.73;115900.28;4997779;28;20077;-82
2023/06/30 06:07:37;;;;;;;22.73;12.52;;;;;;;-142.57;66.06;115900.28;5003416;28;20026;-84
2023/06/30 06:10:06;;;;;;;19.15;12.30;;;;;;;-142.57;67.55;115900.28;4992940;28;20042;-82
2023/06/30 06:12:41;;;;;;;18.30;11.43;;;;;;;-142.57;67.62;115900.28;5008095;28;20038;-82
2023/06/30 06:15:15;;;;;;;23.50;11.80;;;;;;;-142.57;67.72;115900.28;5005612;28;20042;-83
2023/06/30 06:17:44;;;;;;;20.75;12.27;;;;;;;-142.57;67.97;115900.28;4999156;28;20045;-84
2023/06/30 06:20:10;;;;;;;22.17;12.52;;;;;;;-142.57;68.33;115900.28;4966333;28;20023;-80
2023/06/30 06:22:35;;;;;;;19.25;11.82;;;;;;;-142.57;68.87;115900.28;5001140;28;20372;-80
2023/06/30 06:25:01;;;;;;;24.75;12.52;;;;;;;-142.57;69.37;115900.28;5002383;28;20046;-81
2023/06/30 06:27:33;;;;;;;20.70;12.13;;;;;;;-142.57;70.38;115900.28;5001105;28;20034;-84
2023/06/30 06:29:59;;;;;;;;;;;;;;;-142.57;69.93;115900.28;4984138;28;20065;-83
2023/06/30 06:32:27;;;;;;;18.75;11.25;;;;;;;-142.57;69.56;115900.28;5000139;28;19993;-80
2023/06/30 06:34:55;;;;;;;21.77;10.43;;;;;;;-142.57;70.08;115900.28;5000847;28;20073;-84
2023/06/30 06:37:21;;;;;;;21.58;10.52;;;;;;;-142.57;70.47;115900.28;5001269;28;20037;-87
2023/06/30 06:39:47;;;;;;;19.60;11.13;;;;;;;-142.57;70.12;115900.28;5005253;28;20399;-86
2023/06/30 06:42:23;;;;;;;21.75;11.63;;;;;;;-142.57;70.99;115900.28;4989398;28;20034;-89
2023/06/30 06:44:48;;;;;;;23.10;12.98;;;;;;;-142.57;69.78;115900.28;5009426;28;20049;-87
2023/06/30 06:47:54;;;;;;;25.65;11.23;;;;;;;-142.57;67.43;115900.28;4999539;28;20026;-88
2023/06/30 06:50:25;;;;;;;27.08;13.85;;;;;;;-142.57;65.39;115900.28;4995173;28;20041;-89
2023/06/30 06:52:51;;;;;;;24.13;13.45;;;;;;;-142.57;63.79;115900.28;4992081;28;20058;-88
2023/06/30 06:55:17;;;;;;;25.25;14.23;;;;;;;-142.57;61.76;115900.28;4982100;28;20088;-87
2023/06/30 06:57:48;;;;;;;29.08;16.33;;;;;;;-142.57;59.27;115900.28;5008011;28;20065;-91
2023/06/30 07:00:16;;;;;;;28.27;14.93;;;;;;;-142.57;59.67;115900.28;4998469;28;20472;-92
2023/06/30 07:02:42;;;;;;;30.75;16.27;;;;;;;-142.57;58.31;115900.28;5000771;28;20042;-90
2023/06/30 07:05:08;;;;;;;29.33;14.07;;;;;;;-142.57;60.34;115900.28;4978168;28;20026;-90
2023/06/30 07:07:34;;;;;;;31.17;15.15;;;;;;;-142.57;60.39;115900.28;5012363;28;20066;-88
2023/06/30 07:10:05;;;;;;;26.55;15.30;;;;;;;-142.57;59.12;115900.28;4995100;28;20062;-87
2023/06/30 07:12:35;;;;;;;27.90;15.33;;;;;;;-142.57;58.01;115900.28;5002967;28;20061;-88
2023/06/30 07:15:07;;;;;;;29.00;15.57;;;;;;;-142.57;59.38;115900.28;4994920;28;20042;-90
2023/06/30 07:17:44;;;;;;;26.83;13.82;;;;;;;-142.57;60.07;115900.28;4992323;28;20042;-90
2023/06/30 07:20:11;;;;;;;24.02;14.77;;;;;;;-142.57;61.12;115900.28;4975512;28;20117;-87
2023/06/30 07:22:37;;;;;;;30.88;15.82;;;;;;;-142.57;61.06;115900.28;5005383;28;20033;-89
2023/06/30 07:25:03;;;;;;;26.80;15.23;;;;;;;-142.57;60.09;115900.28;5015413;28;20046;-87
2023/06/30 07:27:30;;;;;;;27.65;13.60;;;;;;;-142.57;60.97;115900.28;5005660;28;20126;-89
2023/06/30 07:29:55;;;;;;;23.17;14.20;;;;;;;-142.57;60.30;115900.28;5007882;28;20042;-90
2023/06/30 07:32:21;;;;;;;25.48;14.30;;;;;;;-142.57;61.20;115900.28;4970969;28;20062;-87
2023/06/30 07:35:08;;;;;;;21.60;14.80;;;;;;;-142.57;61.48;115900.28;4989306;28;20121;-90
2023/06/30 07:37:34;;;;;;;28.67;15.95;;;;;;;-142.57;63.60;115900.28;5007769;28;20416;-89
2023/06/30 07:40:04;;;;;;;27.17;15.00;;;;;;;-142.57;63.86;115900.28;4983693;28;20470;-89
2023/06/30 07:42:30;;;;;;;25.00;15.25;;;;;;;-142.57;65.28;115900.28;4987573;28;20034;-88
2023/06/30 07:44:55;;;;;;;28.23;14.57;;;;;;;-142.57;66.30;115900.28;4990847;28;20103;-89
2023/06/30 07:47:21;;;;;;;27.27;15.45;;;;;;;-142.57;66.17;115900.28;4988786;28;20170;-90
2023/06/30 07:49:46;;;;;;;32.80;15.85;;;;;;;-142.57;66.28;115900.28;5006341;28;20046;-87
2023/06/30 07:52:12;;;;;;;28.90;13.77;;;;;;;-142.57;65.09;115900.28;4974065;28;20069;-87
2023/06/30 07:54:37;;;;;;;35.13;16.48;;;;;;;-142.57;65.81;115900.28;5008049;28;20038;-88
2023/06/30 07:57:07;;;;;;;33.42;15.07;;;;;;;-142.57;63.60;115900.28;4993366;28;20093;-91
2023/06/30 07:59:37;;;;;;;25.58;15.10;;;;;;;-142.57;62.98;115900.28;5013113;28;20026;-90
2023/06/30 08:02:06;;;;;;;24.75;14.77;;;;;;;-142.57;63.81;115900.28;5011562;28;20030;-89
2023/06/30 08:04:33;;;;;;;27.55;14.93;;;;;;;-142.57;64.25;115900.28;4995689;28;20118;-90
2023/06/30 08:07:04;;;;;;;24.45;13.75;;;;;;;-142.57;65.73;115900.28;5008840;28;20038;-86
2023/06/30 08:09:29;;;;;;;20.65;13.98;;;;;;;-142.57;65.61;115900.28;4983444;28;20046;-92
2023/06/30 08:11:57;;;;;;;31.15;16.02;;;;;;;-142.57;66.35;115900.28;4972319;28;20472;-91
2023/06/30 08:14:28;;;;;;;23.63;13.45;;;;;;;-142.57;66.54;115900.28;5009395;28;20480;-88
2023/06/30 08:17:03;;;;;;;33.33;15.20;;;;;;;-142.57;68.29;115900.28;4978292;28;20034;-87
2023/06/30 08:19:29;;;;;;;30.70;16.88;;;;;;;-142.57;68.29;115900.28;5013275;28;20035;-88
2023/06/30 08:21:55;;;;;;;24.45;16.15;;;;;;;-142.57;69.74;115900.28;4986785;28;20145;-88
2023/06/30 08:24:21;;;;;;;25.13;16.42;;;;;;;-142.57;69.92;115900.28;5003388;28;20053;-90
2023/06/30 08:26:46;;;;;;;27.98;17.27;;;;;;;-142.57;70.05;115900.28;4976321;28;20046;-85
2023/06/30 08:29:13;;;;;;;28.67;17.33;;;;;;;-142.57;70.51;115900.28;5004946;28;20038;-87
2023/06/30 08:31:39;;;;;;;30.10;16.27;;;;;;;-142.57;71.43;115900.28;4989445;28;20062;-90
2023/06/30 08:34:11;;;;;;;27.02;16.40;;;;;;;-142.57;72.92;115900.28;5003995;28;20039;-89
2023/06/30 08:36:45;;;;;;;17.63;11.50;;;;;;;-142.57;72.93;115900.28;4985714;28;20066;-89
2023/06/30 08:39:14;;;;;;;30.45;17.42;;;;;;;-142.57;74.20;115900.28;4992060;28;20392;-87
2023/06/30 08:41:43;;;;;;;43.67;16.52;;;;;;;-142.57;74.96;115900.28;4974329;28;20053;-89
2023/06/30 08:44:12;;;;;;;33.22;16.52;;;;;;;-142.57;74.26;115900.28;4962617;28;20030;-84
2023/06/30 08:46:47;;;;;;;30.85;16.25;;;;;;;-142.57;74.30;115900.28;5011587;28;20061;-86
2023/06/30 08:49:23;;;;;;;28.85;14.88;;;;;;;-142.57;73.91;115900.28;4987338;28;20030;-87
2023/06/30 08:51:57;;;;;;;27.55;14.85;;;;;;;-142.57;74.06;115900.28;5001146;28;20069;-87
2023/06/30 08:54:27;;;;;;;32.42;15.95;;;;;;;-142.57;74.97;115900.28;5002108;28;20119;-87
2023/06/30 08:56:54;;;;;;;26.80;14.77;;;;;;;-142.57;76.94;115900.28;4986186;28;20057;-88
2023/06/30 08:59:20;;;;;;;37.92;16.17;;;;;;;-142.57;83.46;115900.28;5007416;28;20030;-89
2023/06/30 09:01:49;;;;;;;34.45;15.98;;;;;;;-142.57;87.98;115900.28;4976477;28;20050;-88
2023/06/30 09:04:45;;;;;;;32.78;16.80;;;;;;;-142.57;98.74;115900.28;5009701;28;20046;-88
2023/06/30 09:07:25;;;;;;;51.55;20.13;;;;;;;-142.57;100.00;115900.28;4993868;28;20137;-87
2023/06/30 09:09:56;;;;;;;43.45;21.13;;;;;;;-142.57;100.00;115900.28;4994456;28;20041;-90
2023/06/30 09:12:29;;;;;;;41.55;20.73;;;;;;;-142.57;100.00;115900.28;4977358;28;20042;-88
2023/06/30 09:15:02;;;;;;;;;;;;;;;-142.57;100.00;115900.28;5015930;28;20057;-87
2023/06/30 09:17:32;;;;;;;48.63;22.60;;;;;;;-142.57;100.00;115900.28;4998718;28;20011;-88
2023/06/30 09:20:32;;;;;;;58.15;23.30;;;;;;;-142.57;100.00;115900.28;5014693;28;20033;-88
2023/06/30 09:23:32;;;;;;;39.08;21.77;;;;;;;-142.57;100.00;115900.28;5009811;28;20097;-88
2023/06/30 09:26:30;;;;;;;40.38;21.85;;;;;;;-142.57;100.00;115900.28;4980882;28;20069;-90
2023/06/30 09:29:16;;;;;;;36.92;20.05;;;;;;;-142.57;100.00;115900.28;4998056;28;20034;-90
2023/06/30 09:32:14;;;;;;;40.45;21.05;;;;;;;-142.57;100.00;115900.28;4972369;28;20049;-90
2023/06/30 09:34:45;;;;;;;30.83;20.83;;;;;;;-142.57;100.00;115900.28;4976902;28;20046;-89
2023/06/30 09:37:18;;;;;;;35.05;22.00;;;;;;;-142.57;100.00;115900.28;4992699;28;20045;-88
2023/06/30 09:39:52;;;;;;;34.00;21.80;;;;;;;-142.57;100.00;115900.28;4992187;28;20041;-89
2023/06/30 09:42:22;;;;;;;34.92;21.83;;;;;;;-142.57;100.00;115900.28;4987867;28;20070;-88
2023/06/30 09:45:42;;;;;;;37.90;22.98;;;;;;;-142.57;100.00;115900.28;5014057;28;20030;-89
2023/06/30 09:48:20;;;;;;;30.67;20.13;;;;;;;-142.57;100.00;115900.28;4977473;28;20037;-90
2023/06/30 09:50:46;;;;;;;34.58;20.98;;;;;;;-142.57;100.00;115900.28;5007632;28;20034;-88
2023/06/30 09:53:19;;;;;;;37.67;21.30;;;;;;;-142.57;100.00;115900.28;4988613;28;20045;-89
2023/06/30 09:56:08;;;;;;;31.35;21.13;;;;;;;-142.57;100.00;115900.28;4988860;28;20046;-87
2023/06/30 09:59:09;;;;;;;;;;;;;;;-142.57;100.00;115900.28;5019137;28;20024;-87
2023/06/30 10:02:01;;;;;;;34.38;20.98;;;;;;;-142.57;100.00;115900.28;5037824;28;19912;-88
2023/06/30 10:04:29;;;;;;;;;;;;;;;-142.57;100.00;115900.28;5005898;28;20042;-85
2023/06/30 10:07:07;;;;;;;32.97;18.55;;;;;;;-142.57;100.00;115900.28;5018882;28;19917;-84
2023/06/30 10:09:35;;;;;;;33.20;20.48;;;;;;;-142.57;100.00;115900.28;5021572;28;20026;-83
2023/06/30 10:12:06;;;;;;;30.80;19.63;;;;;;;-142.57;100.00;115900.28;5030062;28;20038;-84
2023/06/30 10:14:37;;;;;;;34.80;22.77;;;;;;;-142.57;100.00;115900.28;5014665;28;20048;-84
2023/06/30 10:17:06;;;;;;;34.97;21.88;;;;;;;-142.57;100.00;115900.28;5034101;28;20022;-80
2023/06/30 10:19:32;;;;;;;35.88;20.55;;;;;;;-142.57;100.00;115900.28;5033952;28;20021;-80
2023/06/30 10:21:58;;;;;;;32.33;20.05;;;;;;;-142.57;100.00;115900.28;5011322;28;20034;-82
2023/06/30 10:24:37;;;;;;;33.33;22.95;;;;;;;-142.57;100.00;115900.28;5021439;28;20037;-80
2023/06/30 10:27:45;;;;;;;34.17;21.60;;;;;;;-142.57;100.00;115900.28;5003862;28;20072;-81
2023/06/30 10:30:12;;;;;;;30.70;20.92;;;;;;;-142.57;100.00;115900.28;5019235;28;20438;-83
2023/06/30 10:32:38;;;;;;;32.60;21.35;;;;;;;-142.57;100.00;115900.28;5001564;28;20037;-81
2023/06/30 10:35:14;;;;;;;32.42;21.02;;;;;;;-142.57;100.00;115900.28;5010278;28;20100;-80
2023/06/30 10:38:21;;;;;;;28.80;19.35;;;;;;;-142.57;100.00;115900.28;4999329;28;20097;-80
2023/06/30 10:40:47;;;;;;;30.45;19.92;;;;;;;-142.57;100.00;115900.28;4991716;28;20029;-81
2023/06/30 10:43:13;;;;;;;31.27;18.77;;;;;;;-142.57;100.00;115900.28;5003087;28;20035;-82
2023/06/30 10:46:06;;;;;;;31.67;17.80;;;;;;;-142.57;100.00;115900.28;4979210;28;20550;-80
2023/06/30 10:48:32;;;;;;;30.73;17.00;;;;;;;-142.57;100.00;115900.28;4968209;28;20410;-82
2023/06/30 10:50:57;;;;;;;27.13;18.00;;;;;;;-142.57;100.00;115900.28;4994910;28;20117;-81
2023/06/30 10:53:26;;;;;;;35.78;17.45;;;;;;;-142.57;100.00;115900.28;4996090;28;20088;-81
2023/06/30 10:55:56;;;;;;;26.48;17.13;;;;;;;-142.57;100.00;115900.28;4978778;28;20573;-81
2023/06/30 11:04:08;;;;;;;25.98;17.80;;;;;;;-142.57;100.00;115900.28;4651290;23;20630;-83
2023/06/30 11:06:36;;;;;;;25.92;16.65;;;;;;;-142.57;100.00;115900.28;5030927;28;20418;-82
2023/06/30 11:09:17;;;;;;;25.48;16.40;;;;;;;-142.57;100.00;115900.28;5014654;28;20061;-83
2023/06/30 11:11:50;;;;;;;28.65;17.95;;;;;;;-142.57;100.00;115900.28;5030198;28;20088;-83
2023/06/30 11:14:32;;;;;;;24.75;16.75;;;;;;;-142.57;100.00;115900.28;5014471;28;20041;-83
2023/06/30 11:17:03;;;;;;;25.02;16.35;;;;;;;-142.57;100.00;115900.28;5032280;28;20117;-84
2023/06/30 11:19:29;;;;;;;21.02;14.05;;;;;;;-142.57;100.00;115900.28;5032006;28;20037;-82
2023/06/30 11:22:25;;;;;;;18.13;13.55;;;;;;;-142.57;100.00;115900.28;5032236;28;20087;-82